Aviation Digital Data Service (ADDS)

Output produced by TAFs form (2023 UTC 20 July 2017)
found at http://www.aviationweather.gov/adds/tafs/
 
Forecast for: RJOM (MATSUYAMA AIRPOR, JP)
Text: TAF RJOM 201706Z 2018/2200 34008KT 9999 FEW025 SCT040
Forecast period: 1800 UTC 20 July 2017 to 0600 UTC 21 July 2017
Forecast type: FROM: standard forecast or significant change
Winds: from the NNW (340 degrees) at 9 MPH (8 knots; 4.2 m/s)
Visibility: 6 or more miles (10+ km)
Clouds: few clouds at 2500 feet AGL
scattered clouds at 4000 feet AGL
Weather: no significant weather forecast for this period
Text: BECMG 2106/2109 20005KT
Forecast period: 0600 to 2100 UTC 21 July 2017
Forecast type: BECOMING: Conditions expected to become as follows by 0900 UTC 21 July 2017
Winds: from the SSW (200 degrees) at 6 MPH (5 knots; 2.6 m/s)
Visibility: 6 or more miles (10+ km)
Clouds: few clouds at 2500 feet AGL
scattered clouds at 4000 feet AGL
Weather: no significant weather forecast for this period
Text: BECMG 2121/2200 34005KT
Forecast period: 2100 UTC 21 July 2017 to 0000 UTC 22 July 2017
Forecast type: BECOMING: Conditions expected to become as follows by 0000 UTC 22 July 2017
Winds: from the NNW (340 degrees) at 6 MPH (5 knots; 2.6 m/s)
Visibility: 6 or more miles (10+ km)
Clouds: few clouds at 2500 feet AGL
scattered clouds at 4000 feet AGL
Weather: no significant weather forecast for this period